Time;durP1;ratioP1;P1;durP2;ratioP2;P2;SDS_P1;SDS_P2;PMS_P1;PMS_P2;Temp;Humidity;BMP_temperature;BMP_pressure;BME280_temperature;BME280_humidity;BME280_pressure;Samples;Min_cycle;Max_cycle;Signal;HPM_P1;HPM_P2
2021/06/16 00:01:35;;;;;;;11.55;10.25;;;18.70;99.90;;;;;;5084274;28;20474;-75
2021/06/16 00:04:03;;;;;;;13.77;10.93;;;18.70;99.90;;;;;;5073960;28;20047;-74
2021/06/16 00:06:30;;;;;;;11.35;10.07;;;18.50;99.90;;;;;;5076111;28;20033;-75
2021/06/16 00:08:56;;;;;;;13.43;10.00;;;18.40;99.90;;;;;;5095119;28;20040;-74
2021/06/16 00:11:22;;;;;;;11.10;9.82;;;18.40;99.90;;;;;;5076863;28;20027;-75
2021/06/16 00:13:48;;;;;;;11.68;10.27;;;18.30;99.90;;;;;;5074937;28;20066;-75
2021/06/16 00:16:15;;;;;;;12.57;11.25;;;18.30;99.90;;;;;;5088853;28;20048;-74
2021/06/16 00:18:41;;;;;;;11.65;9.93;;;18.20;99.90;;;;;;5075179;28;20028;-75
2021/06/16 00:21:08;;;;;;;13.20;10.18;;;18.20;99.90;;;;;;5074459;28;20043;-75
2021/06/16 00:23:34;;;;;;;11.88;10.48;;;18.10;99.90;;;;;;5074494;28;20032;-74
2021/06/16 00:26:00;;;;;;;11.23;10.13;;;18.20;99.90;;;;;;5074136;28;20041;-75
2021/06/16 00:28:26;;;;;;;11.90;10.57;;;18.30;99.90;;;;;;5092743;28;20028;-75
2021/06/16 00:30:53;;;;;;;11.77;10.55;;;18.30;99.90;;;;;;5074694;28;20385;-75
2021/06/16 00:33:19;;;;;;;13.20;9.98;;;18.30;99.90;;;;;;5074755;28;20067;-75
2021/06/16 00:35:45;;;;;;;11.98;10.45;;;18.40;99.90;;;;;;5074539;28;20045;-76
2021/06/16 00:38:12;;;;;;;12.13;10.77;;;18.30;99.90;;;;;;5092707;28;20059;-75
2021/06/16 00:40:38;;;;;;;12.68;10.70;;;18.30;99.90;;;;;;5081680;28;20048;-75
2021/06/16 00:43:04;;;;;;;11.70;10.00;;;18.20;99.90;;;;;;5074498;28;20033;-76
2021/06/16 00:45:30;;;;;;;12.05;10.45;;;18.20;99.90;;;;;;5074923;28;20035;-74
2021/06/16 00:47:58;;;;;;;12.57;11.38;;;18.20;99.90;;;;;;5074701;28;20044;-75
2021/06/16 00:50:31;;;;;;;15.20;11.77;;;18.00;99.90;;;;;;5089540;28;20048;-74
2021/06/16 00:52:57;;;;;;;13.50;11.10;;;17.90;99.90;;;;;;5073652;28;20040;-74
2021/06/16 00:55:23;;;;;;;17.45;12.27;;;17.80;99.90;;;;;;5076070;28;20021;-75
2021/06/16 00:57:50;;;;;;;14.15;12.70;;;18.00;99.90;;;;;;5079337;28;20049;-74
2021/06/16 01:00:20;;;;;;;17.52;12.65;;;18.00;99.90;;;;;;5075096;28;20033;-74
2021/06/16 01:02:50;;;;;;;13.05;11.68;;;18.10;99.90;;;;;;5074874;28;20036;-74
2021/06/16 01:05:17;;;;;;;16.55;12.32;;;18.10;99.90;;;;;;5081409;28;20024;-74
2021/06/16 01:07:47;;;;;;;13.35;10.80;;;18.20;99.90;;;;;;5078324;28;20032;-74
2021/06/16 01:10:21;;;;;;;14.90;12.23;;;18.20;99.90;;;;;;5074109;28;20029;-74
2021/06/16 01:12:52;;;;;;;13.13;11.10;;;18.30;99.90;;;;;;5089030;28;20039;-74
2021/06/16 01:15:23;;;;;;;14.50;11.65;;;18.20;99.90;;;;;;5073590;28;20055;-74
2021/06/16 01:17:53;;;;;;;13.88;12.23;;;18.30;99.90;;;;;;5073800;28;20048;-75
2021/06/16 01:20:32;;;;;;;13.25;11.88;;;18.20;99.90;;;;;;5073856;28;20036;-75
2021/06/16 01:22:59;;;;;;;17.63;12.27;;;18.30;99.90;;;;;;5073453;28;20060;-75
2021/06/16 01:25:36;;;;;;;13.38;11.40;;;18.30;99.90;;;;;;5075300;28;20036;-74
2021/06/16 01:28:04;;;;;;;14.23;11.90;;;18.30;99.90;;;;;;5079605;28;20040;-74
2021/06/16 01:30:32;;;;;;;12.60;11.30;;;18.30;99.90;;;;;;5074802;28;20029;-74
2021/06/16 01:33:00;;;;;;;13.57;12.18;;;18.30;99.90;;;;;;5082298;28;20052;-75
2021/06/16 01:35:29;;;;;;;13.05;11.60;;;18.30;99.90;;;;;;5084058;28;20036;-76
2021/06/16 01:37:58;;;;;;;13.38;11.32;;;18.30;99.90;;;;;;5090033;28;20031;-76
2021/06/16 01:40:25;;;;;;;11.55;10.45;;;18.10;99.90;;;;;;5075749;28;20043;-75
2021/06/16 01:42:56;;;;;;;12.43;11.15;;;18.00;99.90;;;;;;5073117;28;20040;-76
2021/06/16 01:45:22;;;;;;;;;;;18.00;99.90;;;;;;5083849;28;20059;-76
2021/06/16 01:47:50;;;;;;;13.55;12.25;;;17.90;99.90;;;;;;5084202;28;19919;-74
2021/06/16 01:50:19;;;;;;;12.85;11.55;;;17.90;99.90;;;;;;5072806;28;20496;-74
2021/06/16 01:52:51;;;;;;;14.82;13.25;;;17.80;99.90;;;;;;5072688;28;20044;-74
2021/06/16 01:55:18;;;;;;;15.32;13.27;;;17.80;99.90;;;;;;5081925;28;20036;-74
2021/06/16 01:57:45;;;;;;;15.32;13.13;;;17.80;99.90;;;;;;5079680;28;20043;-74
2021/06/16 02:00:12;;;;;;;14.60;12.40;;;17.80;99.90;;;;;;5079373;28;20039;-75
2021/06/16 02:02:39;;;;;;;15.70;11.98;;;17.80;99.90;;;;;;5072573;28;20052;-74
2021/06/16 02:05:09;;;;;;;14.82;11.93;;;17.80;99.90;;;;;;5080347;28;20028;-75
2021/06/16 02:07:41;;;;;;;14.63;13.10;;;17.80;99.90;;;;;;5083209;28;20462;-75
2021/06/16 02:10:13;;;;;;;13.55;11.65;;;17.80;99.90;;;;;;5072320;28;20047;-75
2021/06/16 02:12:47;;;;;;;13.43;11.98;;;17.80;99.90;;;;;;5080453;28;20040;-75
2021/06/16 02:15:16;;;;;;;14.80;12.20;;;17.80;99.90;;;;;;5077676;28;20028;-74
2021/06/16 02:17:52;;;;;;;16.13;11.73;;;17.80;99.90;;;;;;5072661;28;20036;-75
2021/06/16 02:20:22;;;;;;;13.07;11.68;;;17.70;99.90;;;;;;5082708;28;20039;-75
2021/06/16 02:22:50;;;;;;;13.20;11.95;;;17.70;99.90;;;;;;5079456;28;20048;-75
2021/06/16 02:25:17;;;;;;;14.00;12.45;;;17.60;99.90;;;;;;5072260;28;20032;-75
2021/06/16 02:27:43;;;;;;;13.20;11.88;;;17.70;99.90;;;;;;5087950;28;20027;-76
2021/06/16 02:30:10;;;;;;;14.32;12.93;;;17.60;99.90;;;;;;5087062;28;20040;-75
2021/06/16 02:32:37;;;;;;;14.07;12.57;;;17.50;99.90;;;;;;5072385;28;20056;-75
2021/06/16 02:35:05;;;;;;;18.45;13.60;;;17.40;99.90;;;;;;5072074;28;20227;-75
2021/06/16 02:37:35;;;;;;;19.13;14.32;;;17.30;99.90;;;;;;5083517;28;20048;-75
2021/06/16 02:40:11;;;;;;;15.82;14.05;;;17.30;99.90;;;;;;5089403;28;20024;-75
2021/06/16 02:42:42;;;;;;;18.70;13.88;;;17.20;99.90;;;;;;5074644;28;20032;-75
2021/06/16 02:45:09;;;;;;;17.02;15.02;;;17.10;99.90;;;;;;5072137;28;20029;-75
2021/06/16 02:47:42;;;;;;;15.25;13.77;;;17.10;99.90;;;;;;5072521;28;20028;-75
2021/06/16 02:50:11;;;;;;;16.88;14.65;;;17.00;99.90;;;;;;5072592;28;20044;-76
2021/06/16 02:52:42;;;;;;;18.83;15.30;;;16.90;99.90;;;;;;5072216;28;20047;-75
2021/06/16 02:55:10;;;;;;;15.82;13.80;;;16.90;99.90;;;;;;5071353;28;20377;-76
2021/06/16 02:57:41;;;;;;;15.82;13.65;;;17.00;99.90;;;;;;5072140;28;20039;-75
2021/06/16 03:00:10;;;;;;;16.23;14.15;;;17.00;99.90;;;;;;5071867;28;20032;-75
2021/06/16 03:02:38;;;;;;;18.38;13.65;;;17.00;99.90;;;;;;5072299;28;20033;-74
2021/06/16 03:05:06;;;;;;;15.13;13.63;;;17.00;99.90;;;;;;5072118;28;20052;-75
2021/06/16 03:07:34;;;;;;;15.30;13.80;;;17.00;99.90;;;;;;5072407;28;20056;-75
2021/06/16 03:10:01;;;;;;;15.70;14.25;;;17.00;99.90;;;;;;5072452;28;20028;-76
2021/06/16 03:12:28;;;;;;;17.70;15.52;;;16.90;99.90;;;;;;5071660;28;20033;-75
2021/06/16 03:14:55;;;;;;;16.33;14.65;;;16.80;99.90;;;;;;5071494;28;20047;-76
2021/06/16 03:17:22;;;;;;;16.98;15.23;;;16.80;99.90;;;;;;5075564;28;20496;-75
2021/06/16 03:19:49;;;;;;;17.00;15.27;;;16.80;99.90;;;;;;5090878;28;20028;-75
2021/06/16 03:22:17;;;;;;;15.68;14.18;;;16.70;99.90;;;;;;5073940;28;20039;-76
2021/06/16 03:24:45;;;;;;;15.88;14.27;;;16.80;99.90;;;;;;5085710;28;20478;-74
2021/06/16 03:27:11;;;;;;;15.90;14.25;;;16.80;99.90;;;;;;5077830;28;20024;-74
2021/06/16 03:29:38;;;;;;;15.82;14.30;;;16.90;99.90;;;;;;5079446;28;20466;-75
2021/06/16 03:32:09;;;;;;;18.85;13.98;;;16.90;99.90;;;;;;5075356;28;20052;-75
2021/06/16 03:34:36;;;;;;;14.48;12.73;;;17.00;99.90;;;;;;5085735;28;20489;-75
2021/06/16 03:37:07;;;;;;;14.68;13.18;;;16.90;99.90;;;;;;5078812;28;20056;-76
2021/06/16 03:39:34;;;;;;;14.65;13.15;;;16.90;99.90;;;;;;5094676;28;20044;-75
2021/06/16 03:42:02;;;;;;;14.65;13.25;;;16.90;99.90;;;;;;5075909;28;20474;-76
2021/06/16 03:44:30;;;;;;;14.73;13.23;;;16.90;99.90;;;;;;5079337;28;20028;-75
2021/06/16 03:46:58;;;;;;;14.73;13.25;;;16.90;99.90;;;;;;5092265;28;20028;-75
2021/06/16 03:49:25;;;;;;;14.70;13.23;;;16.90;99.90;;;;;;5075431;28;20033;-75
2021/06/16 03:51:53;;;;;;;15.07;13.63;;;16.90;99.90;;;;;;5075163;28;20036;-74
2021/06/16 03:54:20;;;;;;;15.68;13.65;;;16.90;99.90;;;;;;5074998;28;20025;-74
2021/06/16 03:56:47;;;;;;;16.45;13.57;;;16.90;99.90;;;;;;5075386;28;20488;-75
2021/06/16 03:59:15;;;;;;;14.98;13.30;;;17.00;99.90;;;;;;5074744;28;20025;-75
2021/06/16 04:01:43;;;;;;;16.45;13.90;;;17.00;99.90;;;;;;5075254;28;20048;-75
2021/06/16 04:04:11;;;;;;;14.73;13.32;;;17.10;99.90;;;;;;5088113;28;20045;-75
2021/06/16 04:06:47;;;;;;;15.55;13.40;;;17.10;99.90;;;;;;5074994;28;20076;-74
2021/06/16 04:09:15;;;;;;;13.88;12.50;;;17.10;99.90;;;;;;5074920;28;20032;-75
2021/06/16 04:11:44;;;;;;;13.77;12.43;;;17.10;99.90;;;;;;5074967;28;20039;-75
2021/06/16 04:14:10;;;;;;;14.27;12.32;;;17.20;99.90;;;;;;5079560;28;20373;-74
2021/06/16 04:16:41;;;;;;;14.73;11.93;;;17.20;99.90;;;;;;5086700;28;20393;-75
2021/06/16 04:19:07;;;;;;;13.93;11.93;;;17.30;99.90;;;;;;5074389;28;20386;-75
2021/06/16 04:21:33;;;;;;;15.40;11.93;;;17.40;99.90;;;;;;5089562;28;20032;-76
2021/06/16 04:24:00;;;;;;;12.82;11.50;;;17.50;99.90;;;;;;5083365;28;20037;-76
2021/06/16 04:26:26;;;;;;;12.50;11.35;;;17.60;99.90;;;;;;5084643;28;20257;-76
2021/06/16 04:28:52;;;;;;;15.25;11.93;;;17.80;99.90;;;;;;5091947;28;20032;-76
2021/06/16 04:31:18;;;;;;;12.95;11.63;;;18.20;99.90;;;;;;5077812;28;20484;-75
2021/06/16 04:33:45;;;;;;;11.20;10.07;;;18.60;99.90;;;;;;5074511;28;20386;-75
2021/06/16 04:36:11;;;;;;;10.80;9.68;;;19.10;99.90;;;;;;5074025;28;20028;-75
2021/06/16 04:38:37;;;;;;;12.88;10.38;;;19.50;99.90;;;;;;5074264;28;20466;-75
2021/06/16 04:41:04;;;;;;;10.23;9.25;;;20.00;99.90;;;;;;5074478;28;20068;-75
2021/06/16 04:43:31;;;;;;;10.52;9.50;;;20.30;99.90;;;;;;5076736;28;20028;-75
2021/06/16 04:45:57;;;;;;;10.30;9.07;;;20.70;99.90;;;;;;5094347;28;20051;-75
2021/06/16 04:48:23;;;;;;;11.13;9.52;;;20.90;99.90;;;;;;5074395;28;20044;-76
2021/06/16 04:50:49;;;;;;;10.40;9.05;;;20.80;99.90;;;;;;5074644;28;20047;-76
2021/06/16 04:53:16;;;;;;;10.35;9.00;;;21.10;99.90;;;;;;5076497;28;20036;-77
2021/06/16 04:55:42;;;;;;;10.05;8.60;;;21.50;99.30;;;;;;5085258;28;20036;-74
2021/06/16 04:58:08;;;;;;;21.10;9.50;;;21.80;98.20;;;;;;5080716;28;20064;-75
2021/06/16 05:00:35;;;;;;;9.48;8.55;;;22.00;97.20;;;;;;5079377;28;20457;-76
2021/06/16 05:03:01;;;;;;;10.80;9.70;;;22.40;96.00;;;;;;5087158;28;20044;-75
2021/06/16 05:05:28;;;;;;;11.90;9.80;;;22.50;95.40;;;;;;5073189;28;20052;-74
2021/06/16 05:07:54;;;;;;;9.68;8.57;;;22.70;95.00;;;;;;5076474;28;20054;-76
2021/06/16 05:10:21;;;;;;;12.80;9.05;;;22.30;95.70;;;;;;5082025;28;20029;-76
2021/06/16 05:12:47;;;;;;;11.65;8.45;;;22.40;95.30;;;;;;5084209;28;20403;-76
2021/06/16 05:15:15;;;;;;;9.80;8.68;;;22.40;95.10;;;;;;5102657;28;20032;-77
2021/06/16 05:17:42;;;;;;;12.70;8.95;;;22.70;94.20;;;;;;5084391;28;20044;-77
2021/06/16 05:20:11;;;;;;;10.85;8.82;;;22.80;93.70;;;;;;5074147;28;20029;-75
2021/06/16 05:22:42;;;;;;;11.43;8.15;;;22.80;93.70;;;;;;5079035;28;20453;-74
2021/06/16 05:25:10;;;;;;;10.45;8.98;;;22.60;93.80;;;;;;5081109;28;20039;-75
2021/06/16 05:27:37;;;;;;;10.60;8.80;;;22.70;93.50;;;;;;5073702;28;20039;-75
2021/06/16 05:30:05;;;;;;;9.98;8.52;;;22.80;93.30;;;;;;5073597;28;20039;-76
2021/06/16 05:32:35;;;;;;;9.77;8.27;;;23.20;92.40;;;;;;5073274;28;20098;-76
2021/06/16 05:35:02;;;;;;;9.23;8.18;;;23.00;92.50;;;;;;5071077;28;20048;-76
2021/06/16 05:37:28;;;;;;;11.82;9.55;;;23.00;92.40;;;;;;5082665;28;20237;-76
2021/06/16 05:39:54;;;;;;;8.30;7.40;;;23.40;91.60;;;;;;5089229;28;20488;-75
2021/06/16 05:42:20;;;;;;;8.52;7.55;;;23.70;90.80;;;;;;5081215;28;20047;-76
2021/06/16 05:44:47;;;;;;;8.98;7.85;;;24.10;89.90;;;;;;5072894;28;20051;-76
2021/06/16 05:47:13;;;;;;;9.43;6.95;;;24.50;88.40;;;;;;5072821;28;20048;-77
2021/06/16 05:49:40;;;;;;;8.52;7.63;;;25.60;82.40;;;;;;5075436;28;20040;-76
2021/06/16 05:52:06;;;;;;;8.40;7.30;;;25.60;81.20;;;;;;5073842;28;20044;-76
2021/06/16 05:54:35;;;;;;;7.97;7.25;;;24.90;82.70;;;;;;5087210;28;20041;-76
2021/06/16 05:57:02;;;;;;;7.93;7.15;;;24.50;83.80;;;;;;5073006;28;20037;-76
2021/06/16 05:59:28;;;;;;;8.52;7.68;;;24.70;82.90;;;;;;5072226;28;20556;-74
2021/06/16 06:01:54;;;;;;;9.43;7.95;;;24.00;84.90;;;;;;5073143;28;20037;-74
2021/06/16 06:04:20;;;;;;;10.55;7.55;;;23.50;86.60;;;;;;5072889;28;20036;-75
2021/06/16 06:06:47;;;;;;;9.52;7.03;;;23.70;87.10;;;;;;5073053;28;20378;-75
2021/06/16 06:09:13;;;;;;;8.43;7.65;;;24.30;85.00;;;;;;5088721;28;20032;-75
2021/06/16 06:11:39;;;;;;;10.13;8.77;;;24.70;83.50;;;;;;5075013;28;20048;-76
2021/06/16 06:14:08;;;;;;;9.88;7.07;;;24.20;83.30;;;;;;5073042;28;20028;-75
2021/06/16 06:16:34;;;;;;;10.53;7.90;;;24.40;83.80;;;;;;5077828;28;20039;-74
2021/06/16 06:19:01;;;;;;;11.73;7.07;;;25.20;81.70;;;;;;5092839;28;20035;-74
2021/06/16 06:21:31;;;;;;;8.52;7.60;;;25.50;79.20;;;;;;5086244;28;20028;-75
2021/06/16 06:24:02;;;;;;;8.05;6.47;;;24.80;80.60;;;;;;5085508;28;20033;-75
2021/06/16 06:26:28;;;;;;;10.02;7.88;;;24.40;82.30;;;;;;5072542;28;20037;-76
2021/06/16 06:28:55;;;;;;;9.23;7.10;;;24.30;82.30;;;;;;5086187;28;20044;-76
2021/06/16 06:31:22;;;;;;;7.85;7.13;;;24.20;83.00;;;;;;5080741;28;20375;-75
2021/06/16 06:33:48;;;;;;;7.32;6.63;;;24.60;81.90;;;;;;5071759;28;20040;-74
2021/06/16 06:36:14;;;;;;;8.25;7.47;;;25.60;78.10;;;;;;5089139;28;20040;-76
2021/06/16 06:38:41;;;;;;;7.20;6.10;;;26.40;76.10;;;;;;5084436;28;20045;-75
2021/06/16 06:41:07;;;;;;;8.80;7.13;;;26.10;75.90;;;;;;5088074;28;20055;-75
2021/06/16 06:43:33;;;;;;;9.98;7.45;;;25.80;76.90;;;;;;5072604;28;20036;-77
2021/06/16 06:45:59;;;;;;;7.82;7.13;;;25.10;77.90;;;;;;5086600;28;20031;-74
2021/06/16 06:48:26;;;;;;;10.13;7.13;;;25.40;78.20;;;;;;5075722;28;20031;-74
2021/06/16 06:50:53;;;;;;;8.32;7.05;;;25.70;76.40;;;;;;5074798;28;20044;-73
2021/06/16 06:53:21;;;;;;;7.10;6.40;;;25.90;75.30;;;;;;5071543;28;20535;-74
2021/06/16 06:55:48;;;;;;;14.95;7.40;;;26.20;75.10;;;;;;5071716;28;20020;-75
2021/06/16 06:58:14;;;;;;;11.02;7.10;;;26.30;73.50;;;;;;5074986;28;20040;-74
2021/06/16 07:00:40;;;;;;;7.60;6.90;;;26.60;73.00;;;;;;5087707;28;20098;-75
2021/06/16 07:03:09;;;;;;;7.05;6.40;;;26.50;73.40;;;;;;5085882;28;20036;-75
2021/06/16 07:05:37;;;;;;;6.63;5.95;;;26.50;73.20;;;;;;5074454;28;20489;-75
2021/06/16 07:08:03;;;;;;;8.13;6.30;;;26.70;70.30;;;;;;5081352;28;20047;-76
2021/06/16 07:10:30;;;;;;;8.60;7.63;;;26.90;72.00;;;;;;5097339;28;20032;-76
2021/06/16 07:12:56;;;;;;;9.23;6.63;;;26.30;73.40;;;;;;5085106;28;20427;-76
2021/06/16 07:15:23;;;;;;;9.55;7.55;;;26.40;74.90;;;;;;5073885;28;20449;-76
2021/06/16 07:17:49;;;;;;;10.45;6.05;;;26.40;73.00;;;;;;5092709;28;20052;-76
2021/06/16 07:20:19;;;;;;;10.93;6.40;;;26.80;71.70;;;;;;5084834;28;20520;-75
2021/06/16 07:22:47;;;;;;;7.70;6.20;;;26.60;72.00;;;;;;5083264;28;20036;-77
2021/06/16 07:25:14;;;;;;;10.70;6.30;;;27.20;70.00;;;;;;5074858;28;20474;-75
2021/06/16 07:27:45;;;;;;;7.38;6.35;;;27.10;70.20;;;;;;5089722;28;20076;-75
2021/06/16 07:30:13;;;;;;;8.20;5.70;;;26.40;72.40;;;;;;5076819;28;20032;-75
2021/06/16 07:32:40;;;;;;;11.18;5.72;;;27.20;70.50;;;;;;5075371;28;20060;-75
2021/06/16 07:35:08;;;;;;;6.80;5.65;;;27.00;69.00;;;;;;5075419;28;20028;-77
2021/06/16 07:37:35;;;;;;;9.85;6.15;;;27.60;67.00;;;;;;5073979;28;20032;-76
2021/06/16 07:40:04;;;;;;;7.95;6.22;;;27.30;67.30;;;;;;5074814;28;20035;-74
2021/06/16 07:42:30;;;;;;;11.05;6.40;;;26.70;68.20;;;;;;5087195;28;20036;-75
2021/06/16 07:44:57;;;;;;;7.18;6.25;;;26.80;70.60;;;;;;5080116;28;20036;-75
2021/06/16 07:47:23;;;;;;;9.68;6.72;;;27.30;69.30;;;;;;5083130;28;20036;-75
2021/06/16 07:49:50;;;;;;;6.97;5.82;;;28.30;67.00;;;;;;5075544;28;20385;-75
2021/06/16 07:52:16;;;;;;;7.18;6.38;;;29.40;63.00;;;;;;5074512;28;20059;-75
2021/06/16 07:54:42;;;;;;;8.85;5.18;;;29.20;63.50;;;;;;5088665;28;20035;-75
2021/06/16 07:57:08;;;;;;;8.45;5.30;;;28.80;63.00;;;;;;5075656;28;20027;-76
2021/06/16 07:59:35;;;;;;;6.20;4.90;;;29.40;58.00;;;;;;5077158;28;20044;-76
2021/06/16 08:02:02;;;;;;;7.72;5.10;;;29.20;58.60;;;;;;5088114;28;20033;-76
2021/06/16 08:04:29;;;;;;;7.78;5.63;;;29.70;58.50;;;;;;5076135;28;20020;-76
2021/06/16 08:06:56;;;;;;;7.97;5.55;;;29.80;58.60;;;;;;5075390;28;20434;-75
2021/06/16 08:09:23;;;;;;;6.03;4.70;;;28.60;60.70;;;;;;5074888;28;20044;-76
2021/06/16 08:11:50;;;;;;;8.98;5.53;;;28.20;61.20;;;;;;5074719;28;20025;-77
2021/06/16 08:14:16;;;;;;;10.25;4.82;;;28.60;63.30;;;;;;5074192;28;20043;-75
2021/06/16 08:16:43;;;;;;;6.72;5.22;;;29.50;58.50;;;;;;5074568;28;20043;-75
2021/06/16 08:19:09;;;;;;;8.38;5.13;;;28.80;59.10;;;;;;5093479;28;20027;-76
2021/06/16 08:21:35;;;;;;;5.15;4.65;;;29.00;58.90;;;;;;5083003;28;20033;-76
2021/06/16 08:24:01;;;;;;;5.97;4.75;;;29.70;58.30;;;;;;5074755;28;20025;-76
2021/06/16 08:26:28;;;;;;;7.50;5.32;;;32.00;54.90;;;;;;5074488;28;20453;-76
2021/06/16 08:28:54;;;;;;;6.75;5.13;;;31.90;54.80;;;;;;5075080;28;20036;-78
2021/06/16 08:31:20;;;;;;;6.50;5.65;;;31.00;56.50;;;;;;5078980;28;20106;-75
2021/06/16 08:33:46;;;;;;;9.25;5.32;;;31.10;55.80;;;;;;5075157;28;20028;-75
2021/06/16 08:36:13;;;;;;;8.57;5.18;;;30.40;56.70;;;;;;5074807;28;20043;-76
2021/06/16 08:38:39;;;;;;;9.00;4.93;;;30.60;56.70;;;;;;5074297;28;20063;-76
2021/06/16 08:41:08;;;;;;;5.68;4.82;;;30.70;54.20;;;;;;5081723;28;20365;-76
2021/06/16 08:43:47;;;;;;;9.45;5.22;;;32.00;52.70;;;;;;5074427;28;20032;-77
2021/06/16 08:46:14;;;;;;;;;;;33.50;51.80;;;;;;5074729;28;20465;-75
2021/06/16 08:48:43;;;;;;;7.32;4.40;;;34.10;51.50;;;;;;5074368;28;20384;-77
2021/06/16 08:51:14;;;;;;;5.22;4.72;;;34.70;49.70;;;;;;5074170;28;20048;-77
2021/06/16 08:53:45;;;;;;;6.43;4.47;;;33.60;50.80;;;;;;5074708;28;20025;-77
2021/06/16 08:56:12;;;;;;;6.43;4.45;;;32.90;49.60;;;;;;5074429;28;20044;-76
2021/06/16 08:58:39;;;;;;;5.38;4.38;;;32.40;50.30;;;;;;5076421;28;20040;-76
2021/06/16 09:01:07;;;;;;;6.43;3.83;;;31.80;51.00;;;;;;5093769;28;20353;-77
2021/06/16 09:03:34;;;;;;;5.65;3.22;;;32.00;51.10;;;;;;5090921;28;20442;-76
2021/06/16 09:06:09;;;;;;;5.20;3.00;;;32.70;46.30;;;;;;5081664;28;20366;-77
2021/06/16 09:09:02;;;;;;;4.97;3.45;;;33.50;46.80;;;;;;5085723;28;20469;-78
2021/06/16 09:11:46;;;;;;;5.00;3.50;;;32.90;46.40;;;;;;5077635;28;20032;-76
2021/06/16 09:14:19;;;;;;;7.50;3.60;;;32.70;48.10;;;;;;5093163;28;20032;-75
2021/06/16 09:16:46;;;;;;;5.13;3.35;;;32.20;47.00;;;;;;5085810;28;20036;-77
2021/06/16 09:19:26;;;;;;;6.22;3.40;;;32.60;45.20;;;;;;5073820;28;20048;-77
2021/06/16 09:22:07;;;;;;;4.43;3.53;;;31.80;46.50;;;;;;5080805;28;20028;-78
2021/06/16 09:24:45;;;;;;;5.85;3.72;;;31.40;47.30;;;;;;5076446;28;20021;-80
2021/06/16 09:27:39;;;;;;;4.40;3.72;;;31.80;45.90;;;;;;5072962;28;20040;-77
2021/06/16 09:30:29;;;;;;;4.28;3.35;;;31.40;47.30;;;;;;5088529;28;20021;-80
2021/06/16 09:32:58;;;;;;;6.57;3.60;;;32.10;45.00;;;;;;5073668;28;20037;-79
2021/06/16 09:35:30;;;;;;;5.20;2.97;;;31.80;46.20;;;;;;5074626;28;20051;-79
2021/06/16 09:37:58;;;;;;;5.78;3.08;;;32.00;45.40;;;;;;5076303;28;20079;-79
2021/06/16 09:40:29;;;;;;;8.05;2.95;;;32.60;45.90;;;;;;5073653;28;20477;-79
2021/06/16 09:43:07;;;;;;;5.30;3.28;;;33.00;45.60;;;;;;5074077;28;20052;-78
2021/06/16 09:45:35;;;;;;;6.35;3.83;;;33.30;44.20;;;;;;5073453;28;20043;-77
2021/06/16 09:48:20;;;;;;;5.53;2.80;;;32.40;45.90;;;;;;5085702;28;20052;-79
2021/06/16 09:50:46;;;;;;;4.85;2.97;;;33.00;45.20;;;;;;5074260;28;20480;-78
2021/06/16 09:53:13;;;;;;;5.65;3.40;;;33.80;46.20;;;;;;5072837;28;20036;-76
2021/06/16 09:55:39;;;;;;;5.53;2.80;;;34.50;44.10;;;;;;5083729;28;20032;-77
2021/06/16 09:58:16;;;;;;;5.05;3.03;;;34.00;43.60;;;;;;5084694;28;20392;-77
2021/06/16 10:00:48;;;;;;;6.60;3.08;;;34.20;42.80;;;;;;5084780;28;20028;-81
2021/06/16 10:03:22;;;;;;;3.92;2.65;;;34.00;43.60;;;;;;5091490;28;20037;-80
2021/06/16 10:06:08;;;;;;;7.47;3.72;;;34.00;42.70;;;;;;5077567;28;20343;-79
2021/06/16 10:08:37;;;;;;;4.57;2.72;;;33.90;43.10;;;;;;5084668;28;20392;-79
2021/06/16 10:11:16;;;;;;;4.18;2.40;;;32.90;43.90;;;;;;5074115;28;21663;-79
2021/06/16 10:13:43;;;;;;;3.97;2.42;;;33.20;43.30;;;;;;5073620;28;20025;-80
2021/06/16 10:16:10;;;;;;;4.72;3.17;;;33.00;43.90;;;;;;5092320;28;20024;-79
2021/06/16 10:18:42;;;;;;;4.45;2.78;;;32.10;44.30;;;;;;5075514;28;20040;-83
2021/06/16 10:21:13;;;;;;;7.82;3.75;;;32.40;44.40;;;;;;5091083;28;20545;-78
2021/06/16 10:23:40;;;;;;;5.00;3.10;;;32.00;45.20;;;;;;5086549;28;20051;-75
2021/06/16 10:26:13;;;;;;;6.32;3.15;;;31.60;44.70;;;;;;5074253;28;20041;-79
2021/06/16 10:28:43;;;;;;;6.43;2.97;;;31.10;46.20;;;;;;5075208;28;20037;-81
2021/06/16 10:31:10;;;;;;;6.93;3.33;;;30.70;45.80;;;;;;5088322;28;20031;-78
2021/06/16 10:33:38;;;;;;;7.00;3.30;;;30.90;45.80;;;;;;5088692;28;20045;-80
2021/06/16 10:36:22;;;;;;;5.40;2.65;;;31.30;46.70;;;;;;5087397;28;20040;-78
2021/06/16 10:39:00;;;;;;;7.03;2.80;;;31.50;45.10;;;;;;5072292;28;20048;-78
2021/06/16 10:41:45;;;;;;;4.97;2.30;;;31.70;44.40;;;;;;5085774;28;20052;-79
2021/06/16 10:44:16;;;;;;;4.20;2.03;;;31.70;43.40;;;;;;5072330;28;20033;-80
2021/06/16 10:47:06;;;;;;;6.28;1.90;;;31.90;43.50;;;;;;5072685;28;20373;-78
2021/06/16 10:49:42;;;;;;;3.63;2.50;;;32.40;41.70;;;;;;5072328;28;20657;-80
2021/06/16 10:52:13;;;;;;;4.47;2.03;;;32.30;43.00;;;;;;5072405;28;20033;-81
2021/06/16 10:54:52;;;;;;;4.10;2.33;;;32.30;42.90;;;;;;5072623;28;20029;-78
2021/06/16 10:57:18;;;;;;;;;;;32.40;43.00;;;;;;5086602;28;20477;-76
2021/06/16 10:59:48;;;;;;;4.65;2.22;;;32.70;43.60;;;;;;5091081;28;19923;-78
2021/06/16 11:02:24;;;;;;;3.25;1.80;;;33.00;41.80;;;;;;5087817;28;20044;-77
2021/06/16 11:04:51;;;;;;;2.97;1.85;;;32.60;42.40;;;;;;5090534;28;20028;-79
2021/06/16 11:07:27;;;;;;;3.72;1.95;;;31.80;41.10;;;;;;5091145;28;20047;-80
2021/06/16 11:10:04;;;;;;;5.15;1.88;;;31.40;41.70;;;;;;5091233;28;20377;-78
2021/06/16 11:12:37;;;;;;;4.32;2.03;;;31.30;42.30;;;;;;5087015;28;20035;-80
2021/06/16 11:15:11;;;;;;;4.75;1.95;;;31.20;42.10;;;;;;5082340;28;20397;-79
2021/06/16 11:17:42;;;;;;;3.95;1.83;;;31.50;42.40;;;;;;5088031;28;20051;-78
2021/06/16 11:20:10;;;;;;;4.15;1.83;;;31.70;43.10;;;;;;5088869;28;20481;-75
2021/06/16 11:22:44;;;;;;;4.70;2.20;;;32.30;41.90;;;;;;5090152;28;20024;-80
2021/06/16 11:25:19;;;;;;;3.72;2.10;;;32.10;41.50;;;;;;5091242;28;20028;-76
2021/06/16 11:27:51;;;;;;;3.63;1.80;;;32.30;40.90;;;;;;5086757;28;20032;-77
2021/06/16 11:30:29;;;;;;;4.80;2.28;;;32.70;41.20;;;;;;5077985;28;20047;-78
2021/06/16 11:33:28;;;;;;;3.45;2.10;;;31.90;42.00;;;;;;5071805;28;20079;-76
2021/06/16 11:36:02;;;;;;;4.03;2.00;;;31.50;42.10;;;;;;5073409;28;20036;-75
2021/06/16 11:38:40;;;;;;;4.38;2.30;;;31.70;42.50;;;;;;5073164;28;20036;-75
2021/06/16 11:41:20;;;;;;;4.00;1.80;;;32.20;42.40;;;;;;5093427;28;20024;-75
2021/06/16 11:43:50;;;;;;;2.92;1.35;;;32.50;40.80;;;;;;5089725;28;20058;-76
2021/06/16 11:46:30;;;;;;;4.55;1.88;;;32.70;39.60;;;;;;5090583;28;20434;-76
2021/06/16 11:49:17;;;;;;;2.70;1.83;;;32.80;40.60;;;;;;5087178;28;20036;-77
2021/06/16 11:51:46;;;;;;;4.32;2.00;;;33.10;40.90;;;;;;5087499;28;20044;-75
2021/06/16 11:54:22;;;;;;;3.58;2.15;;;32.40;41.00;;;;;;5087033;28;20044;-76
2021/06/16 11:56:57;;;;;;;4.22;2.05;;;32.20;40.50;;;;;;5089334;28;20035;-77
2021/06/16 11:59:42;;;;;;;3.67;2.10;;;32.00;40.50;;;;;;5091643;28;20445;-75
2021/06/16 12:02:21;;;;;;;3.78;2.25;;;32.00;40.70;;;;;;5093878;28;20071;-75
2021/06/16 12:05:05;;;;;;;2.70;1.63;;;32.50;40.70;;;;;;5094042;28;20028;-76
2021/06/16 12:07:40;;;;;;;2.67;1.88;;;33.00;40.50;;;;;;5077421;28;20032;-75
2021/06/16 12:10:13;;;;;;;2.30;1.77;;;33.30;40.60;;;;;;5088025;28;20028;-76
2021/06/16 12:12:51;;;;;;;4.38;1.63;;;33.10;40.00;;;;;;5083742;28;20048;-78
2021/06/16 12:15:28;;;;;;;3.28;1.42;;;32.10;40.60;;;;;;5074369;28;20408;-75
2021/06/16 12:17:58;;;;;;;5.10;2.05;;;31.80;41.30;;;;;;5077030;28;20031;-76
2021/06/16 12:20:30;;;;;;;5.05;1.63;;;32.50;40.70;;;;;;5074045;28;20032;-75
2021/06/16 12:22:58;;;;;;;4.10;1.65;;;33.00;41.10;;;;;;5074667;28;20051;-75
2021/06/16 12:25:27;;;;;;;2.55;1.92;;;33.00;40.40;;;;;;5075016;28;20028;-75
2021/06/16 12:27:55;;;;;;;3.78;1.83;;;32.70;39.90;;;;;;5075153;28;20040;-75
2021/06/16 12:30:28;;;;;;;3.63;1.60;;;32.80;40.40;;;;;;5083510;28;20446;-75
2021/06/16 12:33:24;;;;;;;4.65;2.30;;;32.70;40.20;;;;;;5080893;28;20060;-74
2021/06/16 12:36:11;;;;;;;4.38;2.10;;;32.80;40.10;;;;;;5086000;28;20500;-75
2021/06/16 12:38:39;;;;;;;3.08;2.03;;;32.90;40.50;;;;;;5073851;28;20031;-74
2021/06/16 12:41:25;;;;;;;4.80;2.00;;;32.50;40.60;;;;;;5083779;28;20024;-75
2021/06/16 12:43:53;;;;;;;3.22;1.95;;;32.80;40.90;;;;;;5094728;28;20027;-75
2021/06/16 12:46:19;;;;;;;4.00;2.00;;;32.70;39.80;;;;;;5077300;28;20462;-75
2021/06/16 12:48:45;;;;;;;4.28;2.22;;;32.70;40.60;;;;;;5075007;28;20029;-74
2021/06/16 12:51:12;;;;;;;3.92;2.40;;;32.70;40.70;;;;;;5075447;28;20028;-74
2021/06/16 12:53:40;;;;;;;3.47;2.55;;;32.70;40.40;;;;;;5074657;28;20035;-77